Time;durP1;ratioP1;P1;durP2;ratioP2;P2;SDS_P1;SDS_P2;PMS_P1;PMS_P2;Temp;Humidity;BMP_temperature;BMP_pressure;BME280_temperature;BME280_humidity;BME280_pressure;Samples;Min_cycle;Max_cycle;Signal;HPM_P1;HPM_P2
2023/07/14 00:00:13;;;;;;;4.53;1.80;;;;;;;;;;632513;23;1380;-77
2023/07/14 00:00:32;;;;;;;4.18;1.70;;;;;;;;;;632512;23;1323;-77
2023/07/14 00:00:48;;;;;;;3.50;1.67;;;;;;;;;;629592;23;1258;-77
2023/07/14 00:01:03;;;;;;;3.53;1.60;;;;;;;;;;629277;23;812;-77
2023/07/14 00:01:21;;;;;;;4.38;1.73;;;;;;;;;;627573;23;1239;-77
2023/07/14 00:01:36;;;;;;;4.47;1.85;;;;;;;;;;630237;23;982;-77
2023/07/14 00:01:52;;;;;;;3.70;1.77;;;;;;;;;;629798;23;1184;-77
2023/07/14 00:02:16;;;;;;;3.00;1.60;;;;;;;;;;628084;23;1278;-77
2023/07/14 00:02:31;;;;;;;3.13;1.63;;;;;;;;;;627840;23;1372;-77
2023/07/14 00:02:48;;;;;;;4.90;1.80;;;;;;;;;;628742;23;1247;-77
2023/07/14 00:03:05;;;;;;;7.40;1.90;;;;;;;;;;629703;23;943;-77
2023/07/14 00:03:20;;;;;;;7.40;1.90;;;;;;;;;;633009;23;823;-77
2023/07/14 00:03:35;;;;;;;5.07;1.70;;;;;;;;;;629914;23;1255;-77
2023/07/14 00:03:51;;;;;;;3.50;1.50;;;;;;;;;;629627;23;1161;-76
2023/07/14 00:04:16;;;;;;;2.92;1.50;;;;;;;;;;631522;23;1318;-77
2023/07/14 00:04:33;;;;;;;3.85;1.60;;;;;;;;;;630264;23;858;-76
2023/07/14 00:04:48;;;;;;;4.03;1.67;;;;;;;;;;631236;23;1377;-76
2023/07/14 00:05:04;;;;;;;3.60;1.60;;;;;;;;;;632024;23;796;-76
2023/07/14 00:05:25;;;;;;;2.50;1.50;;;;;;;;;;629580;23;1394;-77
2023/07/14 00:05:40;;;;;;;2.85;1.65;;;;;;;;;;628220;23;1255;-77
2023/07/14 00:05:56;;;;;;;3.20;1.60;;;;;;;;;;629128;23;1146;-77
2023/07/14 00:06:13;;;;;;;2.87;1.40;;;;;;;;;;632637;23;1223;-77
2023/07/14 00:06:29;;;;;;;4.05;1.50;;;;;;;;;;634058;23;1592;-77
2023/07/14 00:06:45;;;;;;;6.55;1.75;;;;;;;;;;633811;23;1298;-76
2023/07/14 00:07:03;;;;;;;5.28;1.60;;;;;;;;;;630691;23;1358;-76
2023/07/14 00:07:18;;;;;;;3.67;1.42;;;;;;;;;;630308;23;1259;-77
2023/07/14 00:07:33;;;;;;;4.10;1.50;;;;;;;;;;627734;23;1232;-77
2023/07/14 00:07:50;;;;;;;3.80;1.50;;;;;;;;;;626266;23;1220;-76
2023/07/14 00:08:16;;;;;;;4.18;1.70;;;;;;;;;;624347;23;1354;-76
2023/07/14 00:08:32;;;;;;;2.95;1.45;;;;;;;;;;623902;23;1405;-76
2023/07/14 00:08:48;;;;;;;3.20;1.67;;;;;;;;;;625253;23;935;-77
2023/07/14 00:09:15;;;;;;;4.13;1.80;;;;;;;;;;627221;23;1275;-77
2023/07/14 00:09:31;;;;;;;3.25;1.67;;;;;;;;;;627574;23;978;-77
2023/07/14 00:09:48;;;;;;;3.90;1.80;;;;;;;;;;629777;23;812;-77
2023/07/14 00:10:14;;;;;;;4.28;1.60;;;;;;;;;;632610;23;864;-77
2023/07/14 00:10:32;;;;;;;3.90;1.63;;;;;;;;;;632994;23;1251;-77
2023/07/14 00:10:48;;;;;;;4.95;1.80;;;;;;;;;;633487;23;799;-77
2023/07/14 00:11:09;;;;;;;3.53;1.70;;;;;;;;;;633096;23;1272;-77
2023/07/14 00:11:25;;;;;;;2.97;1.58;;;;;;;;;;633578;23;1373;-76
2023/07/14 00:11:40;;;;;;;3.07;1.50;;;;;;;;;;630871;23;1311;-76
2023/07/14 00:11:56;;;;;;;3.90;1.57;;;;;;;;;;628302;23;1244;-77
2023/07/14 00:12:14;;;;;;;4.53;1.60;;;;;;;;;;628008;23;828;-77
2023/07/14 00:12:30;;;;;;;4.22;1.70;;;;;;;;;;627092;23;1256;-77
2023/07/14 00:12:46;;;;;;;3.95;1.70;;;;;;;;;;627625;23;1255;-77
2023/07/14 00:13:09;;;;;;;5.35;1.70;;;;;;;;;;624167;23;1418;-76
2023/07/14 00:13:25;;;;;;;5.20;1.60;;;;;;;;;;627721;23;926;-77
2023/07/14 00:13:41;;;;;;;4.43;1.60;;;;;;;;;;626832;23;1164;-77
2023/07/14 00:13:57;;;;;;;4.22;1.77;;;;;;;;;;626746;23;849;-76
2023/07/14 00:14:12;;;;;;;5.20;1.80;;;;;;;;;;627307;23;1391;-77
2023/07/14 00:14:28;;;;;;;3.83;1.55;;;;;;;;;;629285;23;1215;-76
2023/07/14 00:14:44;;;;;;;2.70;1.40;;;;;;;;;;630047;23;1180;-77
2023/07/14 00:15:00;;;;;;;3.03;1.50;;;;;;;;;;632947;23;1339;-76
2023/07/14 00:15:16;;;;;;;3.83;1.50;;;;;;;;;;633759;23;902;-77
2023/07/14 00:15:36;;;;;;;3.80;1.50;;;;;;;;;;633651;23;889;-76
2023/07/14 00:15:52;;;;;;;2.90;1.40;;;;;;;;;;635220;23;1321;-77
2023/07/14 00:16:17;;;;;;;3.57;1.67;;;;;;;;;;634004;23;799;-77
2023/07/14 00:16:33;;;;;;;3.70;1.70;;;;;;;;;;632286;23;1338;-77
2023/07/14 00:16:49;;;;;;;4.10;1.60;;;;;;;;;;636679;22;1362;-76
2023/07/14 00:17:10;;;;;;;3.97;1.60;;;;;;;;;;635744;23;1321;-76
2023/07/14 00:17:26;;;;;;;3.75;1.60;;;;;;;;;;635993;23;902;-77
2023/07/14 00:17:42;;;;;;;3.53;1.60;;;;;;;;;;633508;23;1191;-76
2023/07/14 00:18:12;;;;;;;3.78;1.58;;;;;;;;;;630241;23;1905;-77
2023/07/14 00:18:27;;;;;;;3.42;1.52;;;;;;;;;;630175;23;954;-76
2023/07/14 00:18:43;;;;;;;3.05;1.60;;;;;;;;;;630246;23;796;-76
2023/07/14 00:19:01;;;;;;;3.47;1.70;;;;;;;;;;631727;23;800;-76
2023/07/14 00:19:18;;;;;;;4.10;1.70;;;;;;;;;;630003;23;1330;-76
2023/07/14 00:19:34;;;;;;;3.65;1.67;;;;;;;;;;631495;23;1377;-76
2023/07/14 00:19:49;;;;;;;3.43;1.77;;;;;;;;;;630423;23;1251;-76
2023/07/14 00:20:16;;;;;;;3.90;1.80;;;;;;;;;;628135;23;1196;-77
2023/07/14 00:20:32;;;;;;;3.28;1.55;;;;;;;;;;628434;23;1461;-76
2023/07/14 00:20:48;;;;;;;3.17;1.70;;;;;;;;;;627824;23;732;-76
2023/07/14 00:21:03;;;;;;;3.83;1.80;;;;;;;;;;628252;23;835;-76
2023/07/14 00:21:22;;;;;;;4.13;1.80;;;;;;;;;;625319;23;1177;-76
2023/07/14 00:21:37;;;;;;;4.07;1.75;;;;;;;;;;626082;23;882;-76
2023/07/14 00:21:52;;;;;;;5.17;1.70;;;;;;;;;;627886;23;1609;-76
2023/07/14 00:22:14;;;;;;;5.43;1.80;;;;;;;;;;630628;23;1068;-76
2023/07/14 00:22:30;;;;;;;4.68;1.90;;;;;;;;;;629943;23;1279;-76
2023/07/14 00:22:46;;;;;;;4.38;1.73;;;;;;;;;;629634;23;854;-76
2023/07/14 00:23:08;;;;;;;3.75;1.70;;;;;;;;;;630513;23;879;-77
2023/07/14 00:23:23;;;;;;;5.45;1.85;;;;;;;;;;626287;23;1247;-76
2023/07/14 00:23:39;;;;;;;4.83;1.87;;;;;;;;;;627222;23;1273;-76
2023/07/14 00:23:59;;;;;;;4.78;1.90;;;;;;;;;;626528;23;1298;-76
2023/07/14 00:24:35;;;;;;;3.88;1.80;;;;;;;;;;627034;23;1948;-76
2023/07/14 00:24:50;;;;;;;3.58;1.70;;;;;;;;;;629630;23;1040;-76
2023/07/14 00:25:11;;;;;;;4.07;1.70;;;;;;;;;;629853;23;791;-76
2023/07/14 00:25:27;;;;;;;4.00;1.65;;;;;;;;;;630369;23;1404;-76
2023/07/14 00:25:42;;;;;;;6.00;1.80;;;;;;;;;;630400;23;1340;-76
2023/07/14 00:25:57;;;;;;;6.18;1.90;;;;;;;;;;629358;23;941;-76
2023/07/14 00:26:19;;;;;;;4.73;1.80;;;;;;;;;;625854;23;1277;-75
2023/07/14 00:26:34;;;;;;;5.80;1.88;;;;;;;;;;623367;23;1354;-76
2023/07/14 00:26:55;;;;;;;5.87;1.80;;;;;;;;;;625901;23;844;-76
2023/07/14 00:27:18;;;;;;;5.65;1.88;;;;;;;;;;622749;23;1267;-76
2023/07/14 00:27:34;;;;;;;3.92;1.70;;;;;;;;;;625709;23;828;-76
2023/07/14 00:27:51;;;;;;;4.95;1.77;;;;;;;;;;624455;23;1393;-76
2023/07/14 00:28:15;;;;;;;4.18;1.65;;;;;;;;;;627440;23;858;-75
2023/07/14 00:28:30;;;;;;;4.85;1.73;;;;;;;;;;628290;23;1251;-75
2023/07/14 00:28:48;;;;;;;5.33;1.80;;;;;;;;;;629267;23;858;-75
2023/07/14 00:29:32;;;;;;;4.20;1.80;;;;;;;;;;627482;23;1381;-76
2023/07/14 00:29:49;;;;;;;3.17;1.50;;;;;;;;;;631629;23;1162;-75
2023/07/14 00:30:13;;;;;;;2.67;1.42;;;;;;;;;;630312;23;1472;-76
2023/07/14 00:30:29;;;;;;;3.03;1.38;;;;;;;;;;636184;23;953;-76
2023/07/14 00:31:04;;;;;;;2.95;1.50;;;;;;;;;;633920;23;1355;-76
2023/07/14 00:31:22;;;;;;;3.60;1.70;;;;;;;;;;628340;23;1348;-75
2023/07/14 00:31:37;;;;;;;5.10;1.83;;;;;;;;;;629486;23;1228;-76
2023/07/14 00:31:52;;;;;;;4.57;1.70;;;;;;;;;;628965;23;946;-76
2023/07/14 00:32:18;;;;;;;4.40;1.63;;;;;;;;;;632384;23;878;-76
2023/07/14 00:32:33;;;;;;;3.75;1.77;;;;;;;;;;632532;23;854;-76
2023/07/14 00:32:51;;;;;;;3.73;1.73;;;;;;;;;;632331;23;803;-75
2023/07/14 00:33:12;;;;;;;4.22;1.85;;;;;;;;;;631771;23;906;-76
2023/07/14 00:33:29;;;;;;;4.60;1.80;;;;;;;;;;632780;23;955;-75
2023/07/14 00:33:48;;;;;;;4.50;1.60;;;;;;;;;;631611;23;1362;-76
2023/07/14 00:34:04;;;;;;;4.22;1.60;;;;;;;;;;629341;23;1393;-75
2023/07/14 00:34:19;;;;;;;3.45;1.58;;;;;;;;;;629207;23;1382;-76
2023/07/14 00:34:35;;;;;;;2.90;1.63;;;;;;;;;;628707;23;1173;-76
2023/07/14 00:34:50;;;;;;;2.80;1.63;;;;;;;;;;629453;23;831;-75
2023/07/14 00:35:23;;;;;;;3.30;1.60;;;;;;;;;;625092;23;1200;-76
2023/07/14 00:35:39;;;;;;;4.90;1.70;;;;;;;;;;626897;23;1455;-75
2023/07/14 00:35:54;;;;;;;5.10;1.70;;;;;;;;;;626472;23;1244;-77
2023/07/14 00:36:11;;;;;;;4.75;1.70;;;;;;;;;;626551;23;1138;-75
2023/07/14 00:36:26;;;;;;;5.90;1.83;;;;;;;;;;625798;23;1341;-75
2023/07/14 00:36:42;;;;;;;4.97;1.70;;;;;;;;;;622249;23;1219;-76
2023/07/14 00:36:57;;;;;;;4.30;1.50;;;;;;;;;;622983;23;1145;-75
2023/07/14 00:37:13;;;;;;;4.97;1.65;;;;;;;;;;622995;23;1274;-75
2023/07/14 00:37:28;;;;;;;3.90;1.60;;;;;;;;;;623962;23;788;-76
2023/07/14 00:37:44;;;;;;;3.22;1.60;;;;;;;;;;622598;23;1213;-76
2023/07/14 00:37:59;;;;;;;3.07;1.63;;;;;;;;;;620221;23;1889;-75
2023/07/14 00:38:14;;;;;;;3.05;1.50;;;;;;;;;;625270;23;1177;-76
2023/07/14 00:38:30;;;;;;;4.17;1.57;;;;;;;;;;622952;23;1334;-76
2023/07/14 00:38:45;;;;;;;5.20;1.70;;;;;;;;;;623569;23;923;-76
2023/07/14 00:39:01;;;;;;;5.63;1.70;;;;;;;;;;626258;23;1334;-76
2023/07/14 00:39:16;;;;;;;5.63;1.77;;;;;;;;;;626233;23;1153;-76
2023/07/14 00:39:31;;;;;;;5.57;1.77;;;;;;;;;;626131;23;788;-76
2023/07/14 00:39:46;;;;;;;4.73;1.70;;;;;;;;;;626234;23;1052;-76
2023/07/14 00:40:03;;;;;;;3.20;1.70;;;;;;;;;;627796;23;1153;-76
2023/07/14 00:40:23;;;;;;;5.05;1.70;;;;;;;;;;617248;23;1358;-76
2023/07/14 00:40:44;;;;;;;5.03;1.80;;;;;;;;;;627228;23;1367;-77
2023/07/14 00:41:00;;;;;;;3.90;1.73;;;;;;;;;;629020;23;1458;-76
2023/07/14 00:41:25;;;;;;;3.15;1.65;;;;;;;;;;626310;23;1299;-76
2023/07/14 00:41:42;;;;;;;3.22;1.70;;;;;;;;;;623340;23;1281;-76
2023/07/14 00:41:57;;;;;;;3.40;1.70;;;;;;;;;;624657;23;998;-76
2023/07/14 00:42:14;;;;;;;3.92;1.70;;;;;;;;;;626112;23;1002;-76
2023/07/14 00:42:29;;;;;;;3.53;1.80;;;;;;;;;;626712;23;909;-77
2023/07/14 00:42:47;;;;;;;2.90;1.67;;;;;;;;;;625926;23;1159;-76
2023/07/14 00:43:05;;;;;;;3.40;1.73;;;;;;;;;;629396;23;1315;-76
2023/07/14 00:43:24;;;;;;;4.50;1.90;;;;;;;;;;633085;23;1187;-76
2023/07/14 00:43:40;;;;;;;4.40;1.60;;;;;;;;;;632720;23;893;-76
2023/07/14 00:43:55;;;;;;;4.00;1.67;;;;;;;;;;629281;23;1121;-76
2023/07/14 00:44:15;;;;;;;4.00;1.70;;;;;;;;;;628631;23;905;-76
2023/07/14 00:44:31;;;;;;;3.47;1.60;;;;;;;;;;629305;23;1447;-76
2023/07/14 00:44:51;;;;;;;3.83;1.60;;;;;;;;;;632647;23;791;-77
2023/07/14 00:45:20;;;;;;;4.55;1.70;;;;;;;;;;632106;23;862;-75
2023/07/14 00:45:36;;;;;;;4.82;1.75;;;;;;;;;;633880;23;921;-76
2023/07/14 00:45:54;;;;;;;3.90;1.70;;;;;;;;;;632831;23;1315;-77
2023/07/14 00:46:25;;;;;;;4.10;1.80;;;;;;;;;;631887;23;1222;-76
2023/07/14 00:46:41;;;;;;;5.05;1.80;;;;;;;;;;631788;23;1352;-76
2023/07/14 00:46:56;;;;;;;5.32;1.92;;;;;;;;;;632091;23;1068;-75
2023/07/14 00:47:38;;;;;;;4.88;1.80;;;;;;;;;;631150;23;1193;-76
2023/07/14 00:48:03;;;;;;;4.75;1.70;;;;;;;;;;628945;23;1347;-76
2023/07/14 00:48:22;;;;;;;4.43;1.75;;;;;;;;;;633949;23;880;-76
2023/07/14 00:48:38;;;;;;;3.42;1.60;;;;;;;;;;628526;23;1267;-76
2023/07/14 00:48:57;;;;;;;3.28;1.50;;;;;;;;;;626546;23;1414;-76
2023/07/14 00:49:25;;;;;;;3.97;1.58;;;;;;;;;;630469;23;1084;-76
2023/07/14 00:49:41;;;;;;;6.93;2.03;;;;;;;;;;627713;23;1333;-76
2023/07/14 00:49:57;;;;;;;5.35;1.85;;;;;;;;;;626176;23;1331;-76
2023/07/14 00:50:18;;;;;;;4.93;1.73;;;;;;;;;;623742;23;1287;-76
2023/07/14 00:50:54;;;;;;;4.38;1.70;;;;;;;;;;626061;23;804;-76
2023/07/14 00:51:14;;;;;;;4.20;1.70;;;;;;;;;;628804;23;1001;-75
2023/07/14 00:51:32;;;;;;;3.55;1.80;;;;;;;;;;629982;23;761;-76
2023/07/14 00:51:47;;;;;;;3.05;1.70;;;;;;;;;;633720;23;1009;-76
2023/07/14 00:52:12;;;;;;;3.35;1.60;;;;;;;;;;632203;23;1120;-76
2023/07/14 00:52:33;;;;;;;4.07;1.80;;;;;;;;;;636559;23;1299;-76
2023/07/14 00:52:48;;;;;;;2.83;1.60;;;;;;;;;;636112;23;1242;-76
2023/07/14 00:53:15;;;;;;;3.25;1.70;;;;;;;;;;632754;23;1297;-75
2023/07/14 00:53:32;;;;;;;3.90;1.67;;;;;;;;;;630363;23;1402;-76
2023/07/14 00:53:47;;;;;;;3.83;1.65;;;;;;;;;;630442;23;1610;-76
2023/07/14 00:54:03;;;;;;;3.97;1.80;;;;;;;;;;629731;23;1175;-76
2023/07/14 00:54:27;;;;;;;3.90;1.60;;;;;;;;;;625958;23;1197;-76
2023/07/14 00:54:49;;;;;;;4.60;1.70;;;;;;;;;;630262;23;1306;-76
2023/07/14 00:55:24;;;;;;;4.47;1.77;;;;;;;;;;630868;23;867;-76
2023/07/14 00:55:43;;;;;;;3.47;1.63;;;;;;;;;;629232;23;1381;-75
2023/07/14 00:56:10;;;;;;;2.88;1.67;;;;;;;;;;626279;23;1470;-76
2023/07/14 00:56:31;;;;;;;2.75;1.42;;;;;;;;;;628668;23;1583;-76
2023/07/14 00:56:47;;;;;;;3.45;1.55;;;;;;;;;;632718;23;1069;-76
2023/07/14 00:57:03;;;;;;;3.88;1.70;;;;;;;;;;632881;23;1312;-76
2023/07/14 00:57:22;;;;;;;3.40;1.60;;;;;;;;;;633409;23;1164;-76
2023/07/14 00:57:38;;;;;;;3.17;1.60;;;;;;;;;;632446;23;1081;-76
2023/07/14 00:57:55;;;;;;;3.42;1.75;;;;;;;;;;632055;23;1920;-76
2023/07/14 00:58:14;;;;;;;3.67;1.90;;;;;;;;;;628566;23;1382;-75
2023/07/14 00:58:31;;;;;;;4.05;1.70;;;;;;;;;;629425;23;954;-76
2023/07/14 00:58:49;;;;;;;4.20;1.70;;;;;;;;;;629657;23;870;-76
2023/07/14 00:59:16;;;;;;;4.25;1.80;;;;;;;;;;633246;23;1349;-76
2023/07/14 00:59:33;;;;;;;5.15;1.73;;;;;;;;;;630292;23;890;-76
2023/07/14 00:59:58;;;;;;;4.25;1.80;;;;;;;;;;629683;23;1147;-76
2023/07/14 01:00:24;;;;;;;2.83;1.63;;;;;;;;;;632763;23;1140;-76
2023/07/14 01:00:39;;;;;;;3.53;1.73;;;;;;;;;;629234;23;1330;-76
2023/07/14 01:01:04;;;;;;;4.50;1.90;;;;;;;;;;631455;23;788;-76
2023/07/14 01:01:22;;;;;;;4.03;1.90;;;;;;;;;;634338;23;974;-76
2023/07/14 01:02:09;;;;;;;4.85;1.85;;;;;;;;;;636690;23;1012;-76
2023/07/14 01:02:25;;;;;;;4.65;1.67;;;;;;;;;;632864;23;1257;-76
2023/07/14 01:02:40;;;;;;;4.22;1.83;;;;;;;;;;634897;23;994;-76
2023/07/14 01:02:57;;;;;;;3.27;1.87;;;;;;;;;;635268;23;1196;-76
2023/07/14 01:03:14;;;;;;;3.13;1.55;;;;;;;;;;632981;23;1534;-76
2023/07/14 01:03:31;;;;;;;4.50;1.40;;;;;;;;;;629505;23;1279;-76
2023/07/14 01:03:46;;;;;;;4.32;1.60;;;;;;;;;;625903;23;1224;-76
2023/07/14 01:04:02;;;;;;;3.57;1.70;;;;;;;;;;625782;23;839;-76
2023/07/14 01:04:17;;;;;;;3.55;1.65;;;;;;;;;;625618;23;1131;-76
2023/07/14 01:04:32;;;;;;;3.77;1.63;;;;;;;;;;626503;23;1244;-76
2023/07/14 01:05:08;;;;;;;3.63;1.70;;;;;;;;;;624270;23;1144;-76
2023/07/14 01:05:26;;;;;;;4.22;1.77;;;;;;;;;;626694;23;1275;-75
2023/07/14 01:06:02;;;;;;;3.75;1.65;;;;;;;;;;630869;23;1353;-76
2023/07/14 01:06:23;;;;;;;4.20;1.60;;;;;;;;;;631447;23;1461;-76
2023/07/14 01:06:40;;;;;;;4.05;1.85;;;;;;;;;;632632;23;1321;-76
2023/07/14 01:06:55;;;;;;;4.00;1.77;;;;;;;;;;632903;23;859;-76
2023/07/14 01:07:12;;;;;;;4.60;1.90;;;;;;;;;;629469;23;1285;-76
2023/07/14 01:07:35;;;;;;;4.75;2.00;;;;;;;;;;628382;23;895;-76
2023/07/14 01:07:51;;;;;;;3.47;1.90;;;;;;;;;;629345;23;835;-76
2023/07/14 01:08:07;;;;;;;4.47;2.00;;;;;;;;;;627122;23;1475;-76
2023/07/14 01:08:23;;;;;;;5.72;1.80;;;;;;;;;;626098;23;885;-76
2023/07/14 01:09:07;;;;;;;5.60;1.80;;;;;;;;;;628915;23;1186;-76
2023/07/14 01:09:23;;;;;;;3.42;1.63;;;;;;;;;;622133;23;1322;-76
2023/07/14 01:09:40;;;;;;;3.67;1.67;;;;;;;;;;632035;23;1372;-76
2023/07/14 01:09:58;;;;;;;4.40;1.88;;;;;;;;;;632304;23;850;-76
2023/07/14 01:10:18;;;;;;;4.53;2.00;;;;;;;;;;629551;23;1396;-76
2023/07/14 01:10:33;;;;;;;4.85;1.73;;;;;;;;;;629015;23;1180;-76
2023/07/14 01:10:49;;;;;;;3.77;1.70;;;;;;;;;;629302;23;1149;-76
2023/07/14 01:11:04;;;;;;;4.57;1.77;;;;;;;;;;626723;23;1182;-75
2023/07/14 01:11:25;;;;;;;4.67;1.83;;;;;;;;;;626306;23;1195;-76
2023/07/14 01:11:54;;;;;;;4.10;1.80;;;;;;;;;;626372;23;1269;-76
2023/07/14 01:12:13;;;;;;;4.40;1.70;;;;;;;;;;629190;23;842;-76
2023/07/14 01:12:33;;;;;;;4.90;1.75;;;;;;;;;;630909;23;847;-76
2023/07/14 01:12:54;;;;;;;4.60;1.77;;;;;;;;;;634681;23;958;-76
2023/07/14 01:13:09;;;;;;;4.75;1.85;;;;;;;;;;638002;22;878;-75
2023/07/14 01:13:26;;;;;;;3.83;1.80;;;;;;;;;;638882;22;756;-76
2023/07/14 01:13:43;;;;;;;3.83;1.80;;;;;;;;;;635337;23;1113;-76
2023/07/14 01:14:03;;;;;;;3.47;1.65;;;;;;;;;;635029;23;1477;-75
2023/07/14 01:14:23;;;;;;;3.35;1.60;;;;;;;;;;631702;23;1397;-76
2023/07/14 01:14:43;;;;;;;3.55;1.67;;;;;;;;;;628250;23;1207;-76
2023/07/14 01:14:58;;;;;;;3.22;1.60;;;;;;;;;;629640;23;1399;-76
2023/07/14 01:15:15;;;;;;;3.33;1.60;;;;;;;;;;629339;23;1005;-76
2023/07/14 01:15:31;;;;;;;4.65;1.73;;;;;;;;;;628561;23;1508;-76
2023/07/14 01:15:47;;;;;;;4.60;1.80;;;;;;;;;;629469;23;823;-76
2023/07/14 01:16:02;;;;;;;4.70;1.80;;;;;;;;;;629331;23;1394;-76
2023/07/14 01:16:18;;;;;;;4.75;1.80;;;;;;;;;;626918;23;1002;-76
2023/07/14 01:16:37;;;;;;;5.35;1.80;;;;;;;;;;625261;23;1493;-76
2023/07/14 01:16:54;;;;;;;4.25;1.70;;;;;;;;;;624982;23;1038;-76
2023/07/14 01:17:09;;;;;;;3.90;1.60;;;;;;;;;;627187;23;1474;-76
2023/07/14 01:17:25;;;;;;;4.40;1.70;;;;;;;;;;623829;23;1183;-76
2023/07/14 01:17:41;;;;;;;3.63;1.70;;;;;;;;;;624447;23;1335;-76
2023/07/14 01:17:56;;;;;;;4.25;1.70;;;;;;;;;;627011;23;1923;-76
2023/07/14 01:18:12;;;;;;;4.50;1.83;;;;;;;;;;627868;23;1209;-77
2023/07/14 01:18:28;;;;;;;3.47;1.80;;;;;;;;;;627448;23;956;-76
2023/07/14 01:18:46;;;;;;;3.10;1.80;;;;;;;;;;627386;23;772;-75
2023/07/14 01:19:07;;;;;;;3.08;1.70;;;;;;;;;;628219;23;1252;-76
2023/07/14 01:19:36;;;;;;;4.60;1.70;;;;;;;;;;629104;23;1088;-76
2023/07/14 01:20:00;;;;;;;4.30;1.80;;;;;;;;;;635738;23;898;-76
2023/07/14 01:20:16;;;;;;;4.60;1.48;;;;;;;;;;633163;23;941;-76
2023/07/14 01:20:31;;;;;;;3.50;1.40;;;;;;;;;;629922;23;1243;-76
2023/07/14 01:20:47;;;;;;;3.43;1.60;;;;;;;;;;626958;23;1377;-76
2023/07/14 01:21:02;;;;;;;3.47;1.73;;;;;;;;;;630216;23;1048;-76
2023/07/14 01:21:21;;;;;;;3.42;1.70;;;;;;;;;;630241;23;819;-75
2023/07/14 01:21:37;;;;;;;3.35;1.63;;;;;;;;;;630586;23;938;-76
2023/07/14 01:22:04;;;;;;;3.22;1.58;;;;;;;;;;624508;23;1358;-76
2023/07/14 01:22:47;;;;;;;4.25;1.70;;;;;;;;;;631337;23;815;-76
2023/07/14 01:23:36;;;;;;;4.20;1.70;;;;;;;;;;635492;23;787;-76
2023/07/14 01:24:18;;;;;;;3.90;1.60;;;;;;;;;;635865;23;1341;-76
2023/07/14 01:24:42;;;;;;;5.05;1.70;;;;;;;;;;636470;23;1021;-76
2023/07/14 01:25:33;;;;;;;5.22;1.60;;;;;;;;;;636789;23;945;-76
2023/07/14 01:26:07;;;;;;;3.38;1.70;;;;;;;;;;633640;23;906;-76
2023/07/14 01:26:56;;;;;;;4.03;1.70;;;;;;;;;;636112;23;783;-75
2023/07/14 01:27:11;;;;;;;3.97;1.75;;;;;;;;;;633352;23;1045;-76
2023/07/14 01:27:26;;;;;;;3.90;1.90;;;;;;;;;;633566;23;1453;-77
2023/07/14 01:27:42;;;;;;;4.53;1.90;;;;;;;;;;630216;23;1176;-76
2023/07/14 01:27:57;;;;;;;4.23;1.70;;;;;;;;;;631139;23;791;-76
2023/07/14 01:28:14;;;;;;;3.23;1.53;;;;;;;;;;630590;23;1280;-76
2023/07/14 01:28:30;;;;;;;3.22;1.63;;;;;;;;;;627354;23;1370;-76
2023/07/14 01:28:46;;;;;;;3.43;1.70;;;;;;;;;;623191;23;1304;-76
2023/07/14 01:29:03;;;;;;;3.72;1.80;;;;;;;;;;627753;23;1628;-76
2023/07/14 01:29:19;;;;;;;4.18;1.80;;;;;;;;;;624214;23;1491;-76
2023/07/14 01:29:37;;;;;;;4.25;1.70;;;;;;;;;;623930;23;1193;-76
2023/07/14 01:29:53;;;;;;;3.97;1.80;;;;;;;;;;622891;23;824;-76
2023/07/14 01:30:10;;;;;;;4.72;1.75;;;;;;;;;;625867;23;784;-76
2023/07/14 01:30:25;;;;;;;4.47;1.60;;;;;;;;;;628957;23;852;-77
2023/07/14 01:30:41;;;;;;;3.47;1.67;;;;;;;;;;628898;23;1201;-76
2023/07/14 01:30:57;;;;;;;4.72;1.80;;;;;;;;;;630073;23;1538;-76
2023/07/14 01:31:18;;;;;;;5.00;1.90;;;;;;;;;;630879;23;1002;-76
2023/07/14 01:31:35;;;;;;;4.43;1.92;;;;;;;;;;629266;23;1251;-76
2023/07/14 01:31:52;;;;;;;4.35;1.90;;;;;;;;;;625131;23;1373;-76
2023/07/14 01:32:17;;;;;;;3.83;1.70;;;;;;;;;;627132;23;1000;-76
2023/07/14 01:32:44;;;;;;;3.78;1.70;;;;;;;;;;627950;23;765;-76
2023/07/14 01:33:00;;;;;;;3.72;1.70;;;;;;;;;;629615;23;1414;-76
2023/07/14 01:33:18;;;;;;;3.50;1.80;;;;;;;;;;629495;23;986;-76
2023/07/14 01:33:33;;;;;;;4.63;1.90;;;;;;;;;;633504;23;1981;-76
2023/07/14 01:33:52;;;;;;;4.22;1.88;;;;;;;;;;629689;23;1418;-76
2023/07/14 01:34:08;;;;;;;3.15;1.67;;;;;;;;;;626327;23;1254;-76
2023/07/14 01:34:23;;;;;;;3.80;1.70;;;;;;;;;;626230;23;876;-76
2023/07/14 01:34:39;;;;;;;4.20;1.77;;;;;;;;;;625635;23;1371;-76
2023/07/14 01:34:55;;;;;;;4.57;1.83;;;;;;;;;;627884;23;935;-76
2023/07/14 01:35:12;;;;;;;5.57;1.90;;;;;;;;;;626997;23;1428;-76
2023/07/14 01:35:35;;;;;;;4.22;1.70;;;;;;;;;;625455;23;1251;-76
2023/07/14 01:35:55;;;;;;;4.15;1.75;;;;;;;;;;628061;23;934;-76
2023/07/14 01:36:10;;;;;;;6.03;1.88;;;;;;;;;;626032;23;1346;-76
2023/07/14 01:36:26;;;;;;;5.17;1.80;;;;;;;;;;622872;23;1221;-75
2023/07/14 01:36:43;;;;;;;3.40;1.73;;;;;;;;;;625257;23;1347;-76
2023/07/14 01:36:59;;;;;;;4.05;1.92;;;;;;;;;;623970;23;1323;-77
2023/07/14 01:37:19;;;;;;;4.83;1.90;;;;;;;;;;623840;23;1334;-76
2023/07/14 01:37:37;;;;;;;5.13;2.00;;;;;;;;;;623691;23;1298;-76
2023/07/14 01:37:52;;;;;;;4.40;1.90;;;;;;;;;;622798;23;1964;-76
2023/07/14 01:38:09;;;;;;;4.82;1.80;;;;;;;;;;623258;23;1013;-76
2023/07/14 01:38:26;;;;;;;4.30;1.80;;;;;;;;;;625643;23;958;-76
2023/07/14 01:38:42;;;;;;;4.10;1.73;;;;;;;;;;630058;23;855;-76
2023/07/14 01:38:57;;;;;;;5.05;1.80;;;;;;;;;;631750;23;843;-76
2023/07/14 01:39:13;;;;;;;3.93;1.83;;;;;;;;;;631586;23;1243;-76
2023/07/14 01:39:29;;;;;;;2.97;1.80;;;;;;;;;;633588;23;992;-76
2023/07/14 01:39:45;;;;;;;3.60;1.77;;;;;;;;;;632562;23;1360;-76
2023/07/14 01:40:00;;;;;;;4.90;1.80;;;;;;;;;;629062;23;1258;-76
2023/07/14 01:40:17;;;;;;;5.17;1.80;;;;;;;;;;629736;23;902;-76
2023/07/14 01:40:33;;;;;;;4.50;1.90;;;;;;;;;;628585;23;882;-76
2023/07/14 01:40:49;;;;;;;4.47;1.92;;;;;;;;;;629085;23;1275;-76
2023/07/14 01:41:05;;;;;;;4.00;1.90;;;;;;;;;;625560;23;1362;-76
2023/07/14 01:41:22;;;;;;;4.10;1.90;;;;;;;;;;621821;23;1366;-75
2023/07/14 01:41:37;;;;;;;3.75;1.77;;;;;;;;;;624736;23;836;-76
2023/07/14 01:41:53;;;;;;;4.40;1.70;;;;;;;;;;626875;23;1068;-75
2023/07/14 01:42:08;;;;;;;3.60;1.70;;;;;;;;;;625328;23;1224;-76
2023/07/14 01:42:24;;;;;;;2.87;1.77;;;;;;;;;;621889;23;1246;-76
2023/07/14 01:42:44;;;;;;;3.70;1.80;;;;;;;;;;620428;23;1196;-76
2023/07/14 01:43:03;;;;;;;3.08;1.73;;;;;;;;;;625143;23;1374;-76
2023/07/14 01:43:19;;;;;;;4.57;1.80;;;;;;;;;;626821;23;911;-75
2023/07/14 01:43:36;;;;;;;4.75;1.85;;;;;;;;;;626854;23;888;-76
2023/07/14 01:43:51;;;;;;;4.45;1.90;;;;;;;;;;627490;23;882;-76
2023/07/14 01:44:16;;;;;;;4.30;1.90;;;;;;;;;;630089;23;1160;-76
2023/07/14 01:44:32;;;;;;;4.05;1.60;;;;;;;;;;630864;23;1484;-77
2023/07/14 01:44:49;;;;;;;4.88;1.85;;;;;;;;;;627370;23;1429;-76
2023/07/14 01:45:09;;;;;;;4.45;1.80;;;;;;;;;;627168;23;1467;-76
2023/07/14 01:45:28;;;;;;;4.25;1.90;;;;;;;;;;622947;23;1263;-76
2023/07/14 01:45:51;;;;;;;4.88;1.90;;;;;;;;;;623770;23;1339;-76
2023/07/14 01:46:14;;;;;;;2.83;1.80;;;;;;;;;;625497;23;883;-76
2023/07/14 01:46:30;;;;;;;3.70;2.00;;;;;;;;;;629432;23;915;-76
2023/07/14 01:46:47;;;;;;;5.22;1.92;;;;;;;;;;631254;23;827;-76
2023/07/14 01:47:05;;;;;;;5.20;1.80;;;;;;;;;;635340;23;1061;-76
2023/07/14 01:47:22;;;;;;;4.22;1.67;;;;;;;;;;635761;23;918;-76
2023/07/14 01:47:38;;;;;;;4.60;1.80;;;;;;;;;;632913;23;1452;-76
2023/07/14 01:47:57;;;;;;;4.32;1.90;;;;;;;;;;631928;23;1270;-76
2023/07/14 01:48:15;;;;;;;3.50;1.80;;;;;;;;;;630753;23;1343;-76
2023/07/14 01:48:39;;;;;;;4.43;1.90;;;;;;;;;;631210;23;1546;-76
2023/07/14 01:48:57;;;;;;;3.95;1.70;;;;;;;;;;632601;23;1515;-75
2023/07/14 01:49:34;;;;;;;4.85;1.70;;;;;;;;;;632208;23;1336;-76
2023/07/14 01:49:51;;;;;;;3.70;1.88;;;;;;;;;;635156;23;1033;-75
2023/07/14 01:50:16;;;;;;;3.78;2.00;;;;;;;;;;632546;23;1426;-76
2023/07/14 01:50:40;;;;;;;4.75;1.95;;;;;;;;;;631270;23;843;-75
2023/07/14 01:51:02;;;;;;;4.35;1.85;;;;;;;;;;632159;23;953;-75
2023/07/14 01:51:18;;;;;;;4.60;1.70;;;;;;;;;;628860;23;1370;-76
2023/07/14 01:51:38;;;;;;;5.10;1.90;;;;;;;;;;630038;23;898;-76
2023/07/14 01:51:58;;;;;;;4.90;2.00;;;;;;;;;;633034;23;839;-76
2023/07/14 01:52:20;;;;;;;4.75;1.90;;;;;;;;;;632033;23;1327;-76
2023/07/14 01:52:35;;;;;;;4.05;1.80;;;;;;;;;;630632;23;1448;-76
2023/07/14 01:52:55;;;;;;;4.33;2.00;;;;;;;;;;626833;23;1163;-76
2023/07/14 01:53:17;;;;;;;4.20;2.05;;;;;;;;;;628916;23;1481;-76
2023/07/14 01:53:42;;;;;;;4.05;1.83;;;;;;;;;;625744;23;1336;-76
2023/07/14 01:54:26;;;;;;;5.45;2.10;;;;;;;;;;626746;23;866;-76
2023/07/14 01:54:48;;;;;;;4.00;1.90;;;;;;;;;;621404;23;1183;-76
2023/07/14 01:55:05;;;;;;;3.80;1.80;;;;;;;;;;619420;23;1374;-76
2023/07/14 01:55:23;;;;;;;3.83;1.80;;;;;;;;;;621624;23;836;-76
2023/07/14 01:55:42;;;;;;;4.50;1.75;;;;;;;;;;624497;23;1318;-76
2023/07/14 01:56:01;;;;;;;5.07;1.95;;;;;;;;;;629334;23;1453;-76
2023/07/14 01:56:20;;;;;;;4.50;1.98;;;;;;;;;;625552;23;1322;-76
2023/07/14 01:56:36;;;;;;;4.82;1.92;;;;;;;;;;623183;23;1303;-76
2023/07/14 01:56:54;;;;;;;4.82;2.00;;;;;;;;;;619851;23;1386;-75
2023/07/14 01:57:16;;;;;;;5.55;2.00;;;;;;;;;;622471;23;1442;-76
2023/07/14 01:57:34;;;;;;;6.22;1.90;;;;;;;;;;623691;23;1219;-76
2023/07/14 01:57:54;;;;;;;5.68;1.85;;;;;;;;;;620918;23;1947;-76
2023/07/14 01:58:16;;;;;;;4.32;1.92;;;;;;;;;;621195;23;1299;-76
2023/07/14 01:58:48;;;;;;;5.47;2.10;;;;;;;;;;621207;23;908;-75
2023/07/14 01:59:14;;;;;;;4.45;2.00;;;;;;;;;;625214;23;899;-76